createdAt,value
2019-05-03T00:02:35.541Z,8.18
2019-05-03T00:05:18.728Z,8.13
2019-05-03T00:07:48.639Z,8.06
2019-05-03T00:10:18.130Z,8.02
2019-05-03T00:12:47.435Z,7.94
2019-05-03T00:15:18.715Z,7.84
2019-05-03T00:17:48.204Z,7.76
2019-05-03T00:20:17.587Z,7.63
2019-05-03T00:22:46.892Z,7.57
2019-05-03T00:25:16.219Z,7.53
2019-05-03T00:27:45.682Z,7.49
2019-05-03T00:30:16.643Z,7.48
2019-05-03T00:32:46.033Z,7.45
2019-05-03T00:35:19.736Z,7.48
2019-05-03T00:37:53.865Z,7.50
2019-05-03T00:40:29.349Z,7.61
2019-05-03T00:42:59.761Z,7.63
2019-05-03T00:45:29.080Z,7.66
2019-05-03T00:47:58.414Z,7.67
2019-05-03T00:50:27.727Z,7.69
2019-05-03T00:52:57.055Z,7.73
2019-05-03T00:55:26.459Z,7.71
2019-05-03T00:57:55.784Z,7.74
2019-05-03T01:00:25.441Z,7.81
2019-05-03T01:02:54.766Z,7.90
2019-05-03T01:05:24.092Z,7.98
2019-05-03T01:07:53.421Z,8.07
2019-05-03T01:10:22.964Z,8.13
2019-05-03T01:12:53.327Z,8.16
2019-05-03T01:15:39.450Z,8.14
2019-05-03T01:18:12.322Z,8.23
2019-05-03T01:20:42.676Z,8.28
2019-05-03T01:23:12.481Z,8.28
2019-05-03T01:25:42.915Z,8.29
2019-05-03T01:28:12.445Z,8.29
2019-05-03T01:30:42.494Z,8.35
2019-05-03T01:33:12.204Z,8.32
2019-05-03T01:35:42.776Z,8.27
2019-05-03T01:38:13.214Z,8.23
2019-05-03T01:40:42.557Z,8.16
2019-05-03T01:43:13.096Z,8.14
2019-05-03T01:45:44.066Z,8.17
2019-05-03T01:48:32.212Z,8.16
2019-05-03T01:51:19.655Z,8.15
2019-05-03T01:53:52.218Z,8.15
2019-05-03T01:56:22.492Z,8.17
2019-05-03T01:58:52.382Z,8.16
2019-05-03T02:01:23.534Z,8.10
2019-05-03T02:03:57.407Z,8.08
2019-05-03T02:06:26.730Z,8.08
2019-05-03T02:08:56.053Z,8.05
2019-05-03T02:11:25.597Z,8.04
2019-05-03T02:13:54.937Z,8.04
2019-05-03T02:16:24.250Z,7.98
2019-05-03T02:18:53.591Z,7.94
2019-05-03T02:21:22.962Z,8.00
2019-05-03T02:23:52.296Z,8.03
2019-05-03T02:26:22.424Z,8.09
2019-05-03T02:28:52.729Z,8.15
2019-05-03T02:31:23.227Z,8.17
2019-05-03T02:33:53.525Z,8.29
2019-05-03T02:36:23.552Z,8.28
2019-05-03T02:38:53.635Z,8.26
2019-05-03T02:41:23.184Z,8.20
2019-05-03T02:43:56.019Z,8.18
2019-05-03T02:46:26.891Z,8.16
2019-05-03T02:49:00.639Z,8.14
2019-05-03T02:51:29.934Z,8.03
2019-05-03T02:53:59.267Z,7.88
2019-05-03T02:56:28.591Z,7.90
2019-05-03T02:58:57.895Z,7.83
2019-05-03T03:01:27.196Z,7.70
2019-05-03T03:03:57.586Z,7.65
2019-05-03T03:06:28.706Z,7.58
2019-05-03T03:08:59.112Z,7.49
2019-05-03T03:11:30.817Z,7.46
2019-05-03T03:14:00.505Z,7.45
2019-05-03T03:16:31.442Z,7.43
2019-05-03T03:19:06.199Z,7.44
2019-05-03T03:21:39.456Z,7.44
2019-05-03T03:24:16.394Z,7.43
2019-05-03T03:26:47.223Z,7.48
2019-05-03T03:29:17.638Z,7.53
2019-05-03T03:32:10.422Z,7.55
2019-05-03T03:35:06.083Z,7.56
2019-05-03T03:37:35.191Z,7.52
2019-05-03T03:40:06.166Z,7.49
2019-05-03T03:42:36.259Z,7.48
2019-05-03T03:45:06.940Z,7.50
2019-05-03T03:47:38.183Z,7.48
2019-05-03T03:50:07.813Z,7.51
2019-05-03T03:52:38.524Z,7.42
2019-05-03T03:55:08.161Z,7.41
2019-05-03T03:57:37.551Z,7.33
2019-05-03T04:00:08.224Z,7.29
2019-05-03T04:02:38.930Z,7.28
2019-05-03T04:05:08.767Z,7.23
2019-05-03T04:07:39.164Z,7.21
2019-05-03T04:10:09.305Z,7.21
2019-05-03T04:12:40.431Z,7.23
2019-05-03T04:15:20.915Z,7.24
2019-05-03T04:18:08.066Z,7.24
2019-05-03T04:20:38.235Z,7.27
2019-05-03T04:23:07.566Z,7.27
2019-05-03T04:25:37.442Z,7.28
2019-05-03T04:28:07.125Z,7.34
2019-05-03T04:30:36.764Z,7.33
2019-05-03T04:33:06.404Z,7.31
2019-05-03T04:35:36.584Z,7.32
2019-05-03T04:38:06.653Z,7.31
2019-05-03T04:40:36.181Z,7.28
2019-05-03T04:43:06.371Z,7.31
2019-05-03T04:45:36.719Z,7.32
2019-05-03T04:48:06.853Z,7.33
2019-05-03T04:50:36.911Z,7.33
2019-05-03T04:53:06.592Z,7.38
2019-05-03T04:55:36.511Z,7.36
2019-05-03T04:58:06.107Z,7.42
2019-05-03T05:00:36.038Z,7.48
2019-05-03T05:03:07.031Z,7.51
2019-05-03T05:05:36.623Z,7.52
2019-05-03T05:08:06.283Z,7.57
2019-05-03T05:10:36.358Z,7.58
2019-05-03T05:13:05.923Z,7.60
2019-05-03T05:15:35.603Z,7.62
2019-05-03T05:18:12.708Z,7.64
2019-05-03T05:20:46.580Z,7.57
2019-05-03T05:23:15.966Z,7.63
2019-05-03T05:25:49.871Z,7.71
2019-05-03T05:28:20.997Z,7.81
2019-05-03T05:30:50.471Z,7.88
2019-05-03T05:33:24.982Z,7.90
2019-05-03T05:35:54.680Z,7.84
2019-05-03T05:38:25.573Z,7.75
2019-05-03T05:40:55.548Z,7.96
2019-05-03T05:43:25.659Z,8.05
2019-05-03T05:45:56.294Z,8.08
2019-05-03T05:48:27.679Z,8.52
2019-05-03T05:50:58.122Z,8.46
2019-05-03T05:53:27.408Z,8.44
2019-05-03T05:55:58.323Z,8.57
2019-05-03T05:58:29.268Z,8.08
2019-05-03T06:01:09.334Z,7.73
2019-05-03T06:03:38.620Z,7.56
2019-05-03T06:06:09.609Z,7.41
2019-05-03T06:08:44.693Z,7.41
2019-05-03T06:11:19.254Z,7.45
2019-05-03T06:13:51.380Z,8.11
2019-05-03T06:16:26.682Z,8.64
2019-05-03T06:18:57.686Z,8.82
2019-05-03T06:21:40.612Z,8.60
2019-05-03T06:24:14.789Z,8.63
2019-05-03T06:26:51.903Z,8.81
2019-05-03T06:29:21.337Z,8.91
2019-05-03T06:31:57.863Z,9.35
2019-05-03T06:34:27.677Z,10.02
2019-05-03T06:36:59.586Z,10.87
2019-05-03T06:39:29.370Z,10.20
2019-05-03T06:41:58.637Z,9.91
2019-05-03T06:44:28.715Z,9.95
2019-05-03T06:47:00.995Z,9.51
2019-05-03T06:49:30.706Z,9.52
2019-05-03T06:51:59.981Z,9.38
2019-05-03T06:54:30.105Z,9.41
2019-05-03T06:57:00.209Z,9.70
2019-05-03T06:59:38.364Z,9.66
2019-05-03T07:02:15.029Z,9.12
2019-05-03T07:04:51.494Z,9.14
2019-05-03T07:07:28.067Z,9.23
2019-05-03T07:09:59.043Z,9.08
2019-05-03T07:12:29.977Z,9.12
2019-05-03T07:14:59.270Z,9.06
2019-05-03T07:17:28.728Z,8.90
2019-05-03T07:19:58.038Z,8.73
2019-05-03T07:22:27.322Z,8.90
2019-05-03T07:24:56.761Z,8.88
2019-05-03T07:27:26.040Z,8.76
2019-05-03T07:29:55.664Z,8.74
2019-05-03T07:32:24.992Z,9.12
2019-05-03T07:34:55.599Z,9.07
2019-05-03T07:37:25.103Z,9.54
2019-05-03T07:39:55.605Z,9.50
2019-05-03T07:42:25.644Z,9.27
2019-05-03T07:44:56.086Z,9.69
2019-05-03T07:47:26.413Z,9.63
2019-05-03T07:49:55.862Z,9.95
2019-05-03T07:52:26.214Z,9.99
2019-05-03T07:54:56.439Z,9.94
2019-05-03T07:57:27.377Z,10.02
2019-05-03T07:59:57.749Z,9.84
2019-05-03T08:02:27.628Z,9.86
2019-05-03T08:04:57.217Z,9.67
2019-05-03T08:07:26.514Z,10.39
2019-05-03T08:09:55.824Z,10.67
2019-05-03T08:12:25.185Z,10.33
2019-05-03T08:14:55.131Z,10.72
2019-05-03T08:17:25.601Z,11.07
2019-05-03T08:19:56.191Z,11.43
2019-05-03T08:22:25.777Z,10.79
2019-05-03T08:24:55.683Z,10.64
2019-05-03T08:27:26.160Z,10.33
2019-05-03T08:29:55.889Z,10.87
2019-05-03T08:32:41.207Z,10.97
2019-05-03T08:35:15.496Z,11.01
2019-05-03T08:37:46.486Z,11.50
2019-05-03T08:40:17.392Z,11.44
2019-05-03T08:42:46.693Z,11.27
2019-05-03T08:45:16.167Z,10.91
2019-05-03T08:47:45.472Z,11.29
2019-05-03T08:50:21.185Z,11.28
2019-05-03T08:52:46.346Z,11.16
2019-05-03T08:55:16.079Z,11.22
2019-05-03T08:57:45.621Z,11.08
2019-05-03T09:00:16.579Z,11.55
2019-05-03T09:02:45.937Z,11.76
2019-05-03T09:05:18.135Z,11.99
2019-05-03T09:07:46.497Z,11.81
2019-05-03T09:10:19.336Z,11.17
2019-05-03T09:12:53.154Z,11.11
2019-05-03T09:15:24.542Z,11.44
2019-05-03T09:17:55.394Z,11.44
2019-05-03T09:20:26.403Z,11.68
2019-05-03T09:22:55.997Z,11.87
2019-05-03T09:25:25.485Z,12.35
2019-05-03T09:27:55.211Z,12.41
2019-05-03T09:30:25.243Z,13.57
2019-05-03T09:32:55.671Z,14.62
2019-05-03T09:35:32.088Z,16.53
2019-05-03T09:37:56.179Z,17.24
2019-05-03T09:40:25.476Z,17.80
2019-05-03T09:42:55.163Z,17.02
2019-05-03T09:45:24.802Z,18.90
2019-05-03T09:47:55.165Z,17.17
2019-05-03T09:50:24.804Z,17.20
2019-05-03T09:52:55.442Z,17.20
2019-05-03T09:55:29.661Z,18.46
2019-05-03T09:57:59.054Z,18.43
2019-05-03T10:00:28.431Z,18.00
2019-05-03T10:02:57.691Z,17.14
2019-05-03T10:05:27.070Z,15.91
2019-05-03T10:07:56.489Z,16.46
2019-05-03T10:10:25.953Z,17.01
2019-05-03T10:12:56.325Z,15.93
2019-05-03T10:15:41.554Z,15.08
2019-05-03T10:18:13.720Z,14.72
2019-05-03T10:20:44.653Z,13.72
2019-05-03T10:23:32.412Z,13.61
2019-05-03T10:26:02.041Z,13.10
2019-05-03T10:28:33.145Z,12.66
2019-05-03T10:31:06.933Z,12.57
2019-05-03T10:33:36.350Z,12.40
2019-05-03T10:36:05.798Z,12.43
2019-05-03T10:38:35.123Z,12.48
2019-05-03T10:41:05.824Z,12.60
2019-05-03T10:43:35.614Z,12.60
2019-05-03T10:46:05.372Z,12.15
2019-05-03T10:48:35.527Z,12.35
2019-05-03T10:51:05.281Z,12.52
2019-05-03T10:53:36.217Z,12.25
2019-05-03T10:56:22.651Z,12.23
2019-05-03T10:59:06.372Z,12.25
2019-05-03T11:01:45.241Z,12.32
2019-05-03T11:04:14.882Z,12.13
2019-05-03T11:06:45.888Z,11.85
2019-05-03T11:09:15.508Z,11.68
2019-05-03T11:11:45.646Z,11.14
2019-05-03T11:14:15.173Z,11.83
2019-05-03T11:16:45.959Z,12.47
2019-05-03T11:19:16.978Z,12.98
2019-05-03T11:21:46.467Z,13.26
2019-05-03T11:24:15.745Z,13.17
2019-05-03T11:26:46.932Z,13.08
2019-05-03T11:29:16.227Z,13.11
2019-05-03T11:31:50.137Z,12.77
2019-05-03T11:34:25.378Z,12.58
2019-05-03T11:36:56.423Z,12.56
2019-05-03T11:39:25.709Z,12.29
2019-05-03T11:41:56.631Z,12.02
2019-05-03T11:44:40.673Z,11.54
2019-05-03T11:47:10.055Z,11.49
2019-05-03T11:49:39.359Z,10.89
2019-05-03T11:52:08.884Z,11.30
2019-05-03T11:54:39.135Z,11.06
2019-05-03T11:57:26.162Z,11.05
2019-05-03T11:59:56.466Z,11.03
2019-05-03T12:02:30.068Z,11.15
2019-05-03T12:05:04.975Z,10.78
2019-05-03T12:07:39.661Z,10.87
2019-05-03T12:10:16.816Z,10.68
2019-05-03T12:12:41.363Z,10.56
2019-05-03T12:15:10.832Z,10.63
2019-05-03T12:17:52.005Z,10.43
2019-05-03T12:20:16.737Z,10.50
2019-05-03T12:22:46.679Z,10.58
2019-05-03T12:25:16.709Z,10.88
2019-05-03T12:27:46.580Z,11.09
2019-05-03T12:30:16.299Z,11.52
2019-05-03T12:32:45.675Z,11.41
2019-05-03T12:35:15.457Z,11.23
2019-05-03T12:37:45.691Z,11.32
2019-05-03T12:40:15.499Z,11.00
2019-05-03T12:42:45.980Z,10.92
2019-05-03T12:45:15.420Z,10.77
2019-05-03T12:47:45.338Z,10.75
2019-05-03T12:50:15.664Z,10.61
2019-05-03T12:52:50.263Z,10.42
2019-05-03T12:55:17.146Z,10.59
2019-05-03T12:57:46.631Z,10.41
2019-05-03T13:00:37.140Z,10.44
2019-05-03T13:03:10.649Z,10.55
2019-05-03T13:05:40.015Z,10.28
2019-05-03T13:08:36.365Z,10.08
2019-05-03T13:11:06.599Z,9.72
2019-05-03T13:13:36.230Z,9.85
2019-05-03T13:16:06.601Z,9.97
2019-05-03T13:18:36.046Z,10.11
2019-05-03T13:21:06.243Z,9.96
2019-05-03T13:23:36.598Z,9.59
2019-05-03T13:26:06.145Z,9.48
2019-05-03T13:28:35.447Z,9.52
2019-05-03T13:31:05.807Z,9.41
2019-05-03T13:33:35.515Z,9.39
2019-05-03T13:36:05.294Z,9.32
2019-05-03T13:38:35.184Z,9.24
2019-05-03T13:41:06.842Z,9.16
2019-05-03T13:43:37.009Z,9.02
2019-05-03T13:46:07.356Z,8.99
2019-05-03T13:48:45.580Z,9.03
2019-05-03T13:51:07.637Z,8.87
2019-05-03T13:53:37.066Z,8.79
2019-05-03T13:56:06.419Z,9.00
2019-05-03T13:58:36.065Z,9.08
2019-05-03T14:01:05.872Z,9.12
2019-05-03T14:03:35.628Z,9.27
2019-05-03T14:06:08.740Z,9.27
2019-05-03T14:08:35.945Z,9.37
2019-05-03T14:11:05.662Z,9.38
2019-05-03T14:13:35.618Z,9.09
2019-05-03T14:16:05.929Z,8.69
2019-05-03T14:18:36.882Z,8.96
2019-05-03T14:21:15.524Z,8.88
2019-05-03T14:24:04.975Z,9.03
2019-05-03T14:26:35.137Z,9.09
2019-05-03T14:29:06.180Z,9.20
2019-05-03T14:31:35.599Z,9.12
2019-05-03T14:34:06.025Z,9.17
2019-05-03T14:36:35.991Z,9.30
2019-05-03T14:39:09.716Z,9.45
2019-05-03T14:41:38.893Z,9.58
2019-05-03T14:44:08.231Z,9.46
2019-05-03T14:46:37.671Z,9.44
2019-05-03T14:49:07.005Z,9.61
2019-05-03T14:51:36.307Z,9.62
2019-05-03T14:54:06.985Z,9.36
2019-05-03T14:56:40.851Z,9.37
2019-05-03T14:59:14.871Z,9.38
2019-05-03T15:02:05.262Z,9.26
2019-05-03T15:04:36.431Z,9.09
2019-05-03T15:07:06.164Z,9.02
2019-05-03T15:09:35.629Z,9.10
2019-05-03T15:12:05.465Z,9.37
2019-05-03T15:14:35.955Z,9.34
2019-05-03T15:17:05.451Z,9.55
2019-05-03T15:19:35.128Z,9.46
2019-05-03T15:22:05.657Z,9.83
2019-05-03T15:24:35.230Z,9.89
2019-05-03T15:27:05.045Z,10.05
2019-05-03T15:29:35.495Z,9.88
2019-05-03T15:32:06.643Z,9.73
2019-05-03T15:34:35.978Z,9.67
2019-05-03T15:37:05.683Z,9.52
2019-05-03T15:39:35.485Z,9.48
2019-05-03T15:42:05.402Z,9.34
2019-05-03T15:44:54.403Z,9.37
2019-05-03T15:47:25.412Z,9.13
2019-05-03T15:49:55.385Z,9.21
2019-05-03T15:52:24.895Z,9.30
2019-05-03T15:54:55.217Z,9.34
2019-05-03T15:57:25.217Z,9.44
2019-05-03T15:59:55.156Z,9.67
2019-05-03T16:02:24.791Z,9.63
2019-05-03T16:04:57.183Z,9.46
2019-05-03T16:07:25.157Z,9.48
2019-05-03T16:09:55.320Z,9.51
2019-05-03T16:12:24.995Z,9.39
2019-05-03T16:14:55.231Z,9.66
2019-05-03T16:17:24.663Z,9.61
2019-05-03T16:19:55.737Z,9.76
2019-05-03T16:22:26.143Z,9.67
2019-05-03T16:24:56.681Z,9.64
2019-05-03T16:27:30.477Z,9.65
2019-05-03T16:30:00.234Z,9.51
2019-05-03T16:32:29.532Z,9.23
2019-05-03T16:34:58.827Z,9.36
2019-05-03T16:37:28.140Z,9.23
2019-05-03T16:39:57.873Z,9.18
2019-05-03T16:42:27.393Z,9.19
2019-05-03T16:44:56.745Z,8.99
2019-05-03T16:47:26.051Z,8.81
2019-05-03T16:49:56.985Z,8.77
2019-05-03T16:52:26.266Z,8.58
2019-05-03T16:54:55.558Z,8.42
2019-05-03T16:57:24.861Z,8.53
2019-05-03T16:59:55.120Z,8.55
2019-05-03T17:02:24.652Z,8.70
2019-05-03T17:04:55.882Z,8.77
2019-05-03T17:07:27.063Z,8.86
2019-05-03T17:10:04.897Z,8.66
2019-05-03T17:12:36.701Z,8.48
2019-05-03T17:15:09.679Z,8.49
2019-05-03T17:17:38.979Z,8.40
2019-05-03T17:20:08.942Z,8.41
2019-05-03T17:22:39.523Z,8.43
2019-05-03T17:25:09.436Z,8.35
2019-05-03T17:27:39.892Z,8.38
2019-05-03T17:30:09.584Z,8.34
2019-05-03T17:32:38.951Z,8.41
2019-05-03T17:35:08.557Z,8.35
2019-05-03T17:37:37.856Z,8.35
2019-05-03T17:40:08.906Z,8.40
2019-05-03T17:42:40.033Z,8.41
2019-05-03T17:45:11.228Z,8.44
2019-05-03T17:47:40.665Z,8.44
2019-05-03T17:50:09.927Z,8.40
2019-05-03T17:52:57.117Z,8.22
2019-05-03T17:55:31.101Z,8.14
2019-05-03T17:58:05.095Z,8.06
2019-05-03T18:00:36.174Z,8.04
2019-05-03T18:03:07.288Z,7.98
2019-05-03T18:05:39.856Z,8.00
2019-05-03T18:08:20.079Z,7.97
2019-05-03T18:10:55.059Z,7.93
2019-05-03T18:13:24.788Z,7.92
2019-05-03T18:15:54.411Z,7.89
2019-05-03T18:18:24.717Z,7.86
2019-05-03T18:20:55.740Z,7.86
2019-05-03T18:23:25.029Z,7.78
2019-05-03T18:25:54.821Z,7.77
2019-05-03T18:28:25.422Z,7.75
2019-05-03T18:30:54.827Z,7.73
2019-05-03T18:33:24.693Z,7.72
2019-05-03T18:35:55.043Z,7.72
2019-05-03T18:38:25.301Z,7.74
2019-05-03T18:40:55.348Z,7.73
2019-05-03T18:43:35.129Z,7.68
2019-05-03T18:46:16.028Z,7.67
2019-05-03T18:48:45.401Z,7.61
2019-05-03T18:51:14.845Z,7.62
2019-05-03T18:53:45.070Z,7.58
2019-05-03T18:56:14.815Z,7.50
2019-05-03T18:58:44.830Z,7.46
2019-05-03T19:01:15.477Z,7.48
2019-05-03T19:03:46.500Z,7.45
2019-05-03T19:06:18.910Z,7.36
2019-05-03T19:09:06.147Z,7.28
2019-05-03T19:11:37.765Z,7.24
2019-05-03T19:14:12.572Z,7.21
2019-05-03T19:16:49.062Z,7.16
2019-05-03T19:19:20.024Z,6.97
2019-05-03T19:21:49.313Z,6.92
2019-05-03T19:24:19.052Z,6.83
2019-05-03T19:26:48.516Z,6.73
2019-05-03T19:29:17.823Z,6.75
2019-05-03T19:31:48.969Z,6.73
2019-05-03T19:34:19.831Z,6.72
2019-05-03T19:36:49.143Z,6.74
2019-05-03T19:39:18.604Z,6.75
2019-05-03T19:41:48.521Z,6.77
2019-05-03T19:44:17.812Z,6.72
2019-05-03T19:46:47.233Z,6.68
2019-05-03T19:49:16.516Z,6.70
2019-05-03T19:51:45.814Z,6.70
2019-05-03T19:54:15.132Z,6.67
2019-05-03T19:56:44.576Z,6.71
2019-05-03T19:59:17.052Z,6.67
2019-05-03T20:01:49.198Z,6.67
2019-05-03T20:04:27.492Z,6.65
2019-05-03T20:07:15.658Z,6.63
2019-05-03T20:09:44.958Z,6.48
2019-05-03T20:12:15.186Z,6.42
2019-05-03T20:14:45.076Z,6.35
2019-05-03T20:17:14.823Z,6.32
2019-05-03T20:19:45.178Z,6.30
2019-05-03T20:22:15.151Z,6.26
2019-05-03T20:24:44.850Z,6.23
2019-05-03T20:27:15.113Z,6.17
2019-05-03T20:29:46.310Z,6.12
2019-05-03T20:32:16.041Z,6.06
2019-05-03T20:34:45.473Z,6.02
2019-05-03T20:37:14.857Z,6.01
2019-05-03T20:39:44.152Z,6.03
2019-05-03T20:42:15.416Z,5.98
2019-05-03T20:44:47.958Z,5.92
2019-05-03T20:47:18.963Z,5.93
2019-05-03T20:50:07.923Z,5.91
2019-05-03T20:52:37.225Z,5.89
2019-05-03T20:55:06.604Z,5.96
2019-05-03T20:57:35.933Z,5.92
2019-05-03T21:00:09.228Z,5.88
2019-05-03T21:02:50.827Z,5.92
2019-05-03T21:05:10.152Z,5.94
2019-05-03T21:07:39.482Z,5.90
2019-05-03T21:10:09.383Z,5.88
2019-05-03T21:12:38.704Z,5.88
2019-05-03T21:15:15.381Z,5.85
2019-05-03T21:17:48.867Z,5.89
2019-05-03T21:20:37.965Z,5.84
2019-05-03T21:23:08.989Z,5.84
2019-05-03T21:26:03.648Z,5.77
2019-05-03T21:28:16.454Z,5.65
2019-05-03T21:30:45.827Z,5.67
2019-05-03T21:33:15.736Z,5.64
2019-05-03T21:35:45.380Z,5.62
2019-05-03T21:38:14.789Z,5.62
2019-05-03T21:40:45.281Z,5.58
2019-05-03T21:43:15.266Z,5.49
2019-05-03T21:45:46.273Z,5.47
2019-05-03T21:48:17.287Z,5.50
2019-05-03T21:50:46.575Z,5.46
2019-05-03T21:53:15.849Z,5.50
2019-05-03T21:55:45.352Z,5.46
2019-05-03T21:58:16.470Z,5.45
2019-05-03T22:00:47.530Z,5.39
2019-05-03T22:03:17.448Z,5.40
2019-05-03T22:05:55.032Z,5.41
2019-05-03T22:08:17.690Z,5.42
2019-05-03T22:10:47.054Z,5.35
2019-05-03T22:13:17.497Z,5.40
2019-05-03T22:15:54.452Z,5.36
2019-05-03T22:18:25.374Z,5.44
2019-05-03T22:21:02.725Z,5.39
2019-05-03T22:23:51.510Z,5.33
2019-05-03T22:26:24.763Z,5.34
2019-05-03T22:28:54.773Z,5.26
2019-05-03T22:31:26.714Z,5.23
2019-05-03T22:33:55.301Z,5.18
2019-05-03T22:36:26.136Z,5.09
2019-05-03T22:38:55.502Z,5.04
2019-05-03T22:41:25.317Z,5.06
2019-05-03T22:43:54.789Z,5.04
2019-05-03T22:46:24.932Z,4.96
2019-05-03T22:48:55.195Z,4.92
2019-05-03T22:51:24.664Z,4.89
2019-05-03T22:53:55.253Z,4.85
2019-05-03T22:56:26.127Z,4.85
2019-05-03T22:58:55.394Z,4.83
2019-05-03T23:01:25.631Z,4.82
2019-05-03T23:03:55.143Z,4.76
2019-05-03T23:06:25.147Z,4.85
2019-05-03T23:08:56.203Z,4.79
2019-05-03T23:11:25.525Z,4.75
2019-05-03T23:14:04.644Z,4.74
2019-05-03T23:16:35.612Z,4.70
2019-05-03T23:19:06.467Z,4.68
2019-05-03T23:21:40.569Z,4.68
2019-05-03T23:24:10.972Z,4.66
2019-05-03T23:26:40.376Z,4.74
2019-05-03T23:29:09.672Z,4.69
2019-05-03T23:31:39.331Z,4.67
2019-05-03T23:34:08.635Z,4.61
2019-05-03T23:36:37.941Z,4.59
2019-05-03T23:39:08.646Z,4.61
2019-05-03T23:41:37.944Z,4.56
2019-05-03T23:44:07.273Z,4.56
2019-05-03T23:46:41.361Z,4.58
2019-05-03T23:49:10.679Z,4.56
2019-05-03T23:51:47.647Z,4.61
2019-05-03T23:54:20.103Z,4.57
2019-05-03T23:56:49.594Z,4.55
2019-05-03T23:59:19.072Z,4.54
